Time;durP1;ratioP1;P1;durP2;ratioP2;P2;SDS_P1;SDS_P2;PMS_P1;PMS_P2;Temp;Humidity;BMP_temperature;BMP_pressure;BME280_temperature;BME280_humidity;BME280_pressure;Samples;Min_cycle;Max_cycle;Signal;HPM_P1;HPM_P2
2023/03/18 00:01:02;;;;;;;5.70;3.03;;;10.60;99.90;;;;;;5041900;28;20718;-47
2023/03/18 00:03:34;;;;;;;5.00;3.10;;;10.60;99.90;;;;;;5042440;28;20209;-50
2023/03/18 00:06:07;;;;;;;4.40;2.93;;;10.60;99.90;;;;;;5031303;28;20231;-49
2023/03/18 00:08:35;;;;;;;3.83;2.90;;;10.60;99.90;;;;;;5051603;28;20203;-48
2023/03/18 00:11:04;;;;;;;3.17;2.73;;;10.60;99.90;;;;;;5038485;28;20207;-47
2023/03/18 00:13:32;;;;;;;3.07;2.83;;;10.50;99.90;;;;;;5042746;28;20238;-49
2023/03/18 00:15:59;;;;;;;5.67;3.27;;;10.50;99.90;;;;;;5041408;28;20227;-46
2023/03/18 00:18:26;;;;;;;5.70;3.20;;;10.50;99.90;;;;;;5041678;28;20211;-48
2023/03/18 00:20:56;;;;;;;4.33;2.97;;;10.60;99.90;;;;;;5038428;28;20215;-49
2023/03/18 00:23:23;;;;;;;3.67;3.07;;;10.50;99.90;;;;;;5042357;28;20852;-46
2023/03/18 00:25:53;;;;;;;3.10;2.90;;;10.50;99.90;;;;;;5052085;28;20223;-46
2023/03/18 00:28:20;;;;;;;5.07;3.10;;;10.60;99.90;;;;;;5059618;28;20388;-50
2023/03/18 00:30:50;;;;;;;3.97;2.83;;;10.50;99.90;;;;;;5062694;28;20248;-45
2023/03/18 00:33:18;;;;;;;4.67;3.20;;;10.50;99.90;;;;;;5058851;28;20202;-47
2023/03/18 00:35:46;;;;;;;4.10;2.83;;;10.60;99.90;;;;;;5062676;28;20276;-46
2023/03/18 00:38:19;;;;;;;3.27;2.97;;;10.60;99.90;;;;;;5040443;28;20202;-48
2023/03/18 00:40:53;;;;;;;2.80;2.60;;;10.60;99.90;;;;;;5050816;28;20222;-48
2023/03/18 00:43:22;;;;;;;5.63;2.93;;;10.60;99.90;;;;;;5038998;28;20330;-49
2023/03/18 00:46:11;;;;;;;2.83;2.63;;;10.60;99.90;;;;;;5039669;28;21018;-48
2023/03/18 00:48:38;;;;;;;2.70;2.50;;;10.60;99.90;;;;;;5043495;28;20199;-49
2023/03/18 00:51:06;;;;;;;4.97;2.90;;;10.60;99.90;;;;;;5041570;28;20380;-47
2023/03/18 00:53:34;;;;;;;4.97;2.73;;;10.60;99.90;;;;;;5033186;28;20199;-50
2023/03/18 00:56:01;;;;;;;4.93;2.80;;;10.60;99.90;;;;;;5045907;28;20234;-48
2023/03/18 00:58:27;;;;;;;3.00;2.80;;;10.60;99.90;;;;;;5050391;28;20203;-47
2023/03/18 01:00:55;;;;;;;5.33;2.87;;;10.60;99.90;;;;;;5045195;28;20211;-51
2023/03/18 01:03:24;;;;;;;4.43;2.80;;;10.70;99.90;;;;;;5043973;28;20194;-50
2023/03/18 01:05:52;;;;;;;5.73;2.53;;;10.70;99.90;;;;;;5046411;28;20223;-46
2023/03/18 01:08:20;;;;;;;3.73;2.60;;;10.60;99.90;;;;;;5029973;28;20338;-51
2023/03/18 01:10:49;;;;;;;6.57;2.97;;;10.70;99.90;;;;;;5051743;28;20677;-49
2023/03/18 01:13:15;;;;;;;2.93;2.60;;;10.70;99.90;;;;;;5041871;28;20202;-51
2023/03/18 01:15:43;;;;;;;3.03;2.60;;;10.70;99.90;;;;;;5047351;28;20245;-50
2023/03/18 01:18:10;;;;;;;3.40;2.90;;;10.60;99.90;;;;;;5060841;28;20191;-48
2023/03/18 01:20:38;;;;;;;4.50;2.60;;;10.70;99.90;;;;;;5064800;28;20260;-48
2023/03/18 01:23:07;;;;;;;4.00;2.80;;;10.70;99.90;;;;;;5049525;28;20230;-46
2023/03/18 01:25:36;;;;;;;2.40;2.20;;;10.70;99.90;;;;;;5042588;28;20227;-51
2023/03/18 01:28:05;;;;;;;2.93;2.63;;;10.60;99.90;;;;;;5041989;28;20227;-48
2023/03/18 01:30:34;;;;;;;3.87;3.17;;;10.60;99.90;;;;;;5051556;28;20204;-50
2023/03/18 01:33:00;;;;;;;4.77;2.57;;;10.60;99.90;;;;;;5044625;28;20259;-52
2023/03/18 01:35:29;;;;;;;3.40;2.80;;;10.60;99.90;;;;;;5044136;28;20219;-51
2023/03/18 01:37:57;;;;;;;3.63;2.57;;;10.60;99.90;;;;;;5043575;28;20608;-49
2023/03/18 01:40:25;;;;;;;3.70;2.70;;;10.60;99.90;;;;;;5028774;28;21171;-48
2023/03/18 01:42:58;;;;;;;2.67;2.47;;;10.60;99.90;;;;;;5047696;28;20218;-51
2023/03/18 01:45:32;;;;;;;3.20;2.90;;;10.60;99.90;;;;;;5048510;28;20260;-49
2023/03/18 01:48:01;;;;;;;2.87;2.60;;;10.60;99.90;;;;;;5044155;28;20217;-48
2023/03/18 01:50:31;;;;;;;3.20;2.77;;;10.60;99.90;;;;;;5043998;28;20202;-48
2023/03/18 01:53:02;;;;;;;4.93;2.70;;;10.60;99.90;;;;;;5055345;28;21212;-48
2023/03/18 01:55:32;;;;;;;2.90;2.60;;;10.60;99.90;;;;;;5031219;28;20234;-49
2023/03/18 01:58:01;;;;;;;5.60;2.80;;;10.50;99.90;;;;;;5048201;28;20253;-49
2023/03/18 02:00:28;;;;;;;6.20;2.97;;;10.50;99.90;;;;;;5045700;28;20279;-48
2023/03/18 02:02:57;;;;;;;3.03;2.73;;;10.50;99.90;;;;;;5043704;28;20207;-51
2023/03/18 02:05:27;;;;;;;5.07;2.87;;;10.50;99.90;;;;;;5041582;28;20215;-49
2023/03/18 02:07:54;;;;;;;3.57;2.80;;;10.50;99.90;;;;;;5043583;28;20306;-51
2023/03/18 02:10:24;;;;;;;3.80;2.77;;;10.50;99.90;;;;;;5028072;28;20214;-49
2023/03/18 02:12:57;;;;;;;7.40;2.80;;;10.50;99.90;;;;;;5043243;28;20234;-46
2023/03/18 02:15:31;;;;;;;3.07;2.70;;;10.40;99.90;;;;;;5043769;28;20229;-52
2023/03/18 02:18:05;;;;;;;3.10;2.80;;;10.40;99.90;;;;;;5042533;28;20568;-50
2023/03/18 02:20:46;;;;;;;4.07;2.90;;;10.40;99.90;;;;;;5044300;28;20234;-49
2023/03/18 02:23:25;;;;;;;4.03;2.80;;;10.40;99.90;;;;;;5045460;28;20946;-52
2023/03/18 02:25:58;;;;;;;3.40;2.70;;;10.40;99.90;;;;;;5037379;28;20227;-50
2023/03/18 02:28:31;;;;;;;5.67;2.83;;;10.40;99.90;;;;;;5046318;28;22897;-49
2023/03/18 02:31:03;;;;;;;2.83;2.57;;;10.40;99.90;;;;;;5043659;28;20199;-47
2023/03/18 02:33:35;;;;;;;3.93;2.80;;;10.40;99.90;;;;;;5043519;28;20678;-50
2023/03/18 02:36:05;;;;;;;4.87;2.53;;;10.40;99.90;;;;;;5054605;28;20223;-48
2023/03/18 02:38:41;;;;;;;4.00;2.70;;;10.40;99.90;;;;;;5044133;28;20280;-52
2023/03/18 02:41:15;;;;;;;2.90;2.60;;;10.30;99.90;;;;;;5024955;28;20230;-49
2023/03/18 02:43:45;;;;;;;5.83;2.80;;;10.30;99.90;;;;;;5056648;28;20230;-47
2023/03/18 02:46:27;;;;;;;2.67;2.37;;;10.30;99.90;;;;;;5037102;28;20238;-52
2023/03/18 02:48:55;;;;;;;3.70;2.80;;;10.30;99.90;;;;;;5043408;28;20277;-48
2023/03/18 02:51:22;;;;;;;3.40;2.70;;;10.30;99.90;;;;;;5045392;28;20218;-48
2023/03/18 02:53:50;;;;;;;5.20;2.53;;;10.30;99.90;;;;;;5049142;28;20209;-49
2023/03/18 02:56:17;;;;;;;5.50;3.07;;;10.30;99.90;;;;;;5047067;28;20288;-50
2023/03/18 02:59:08;;;;;;;4.17;3.23;;;10.30;99.90;;;;;;5025343;28;20233;-50
2023/03/18 03:01:36;;;;;;;3.37;2.80;;;10.30;99.90;;;;;;5048420;28;20227;-49
2023/03/18 03:04:05;;;;;;;4.57;2.60;;;10.30;99.90;;;;;;5054062;28;20221;-48
2023/03/18 03:06:33;;;;;;;3.10;2.43;;;10.20;99.90;;;;;;5062419;28;20252;-48
2023/03/18 03:09:01;;;;;;;4.37;2.60;;;10.20;99.90;;;;;;5060753;28;20206;-50
2023/03/18 03:11:29;;;;;;;3.50;3.20;;;10.20;99.90;;;;;;5061731;28;20676;-49
2023/03/18 03:14:05;;;;;;;3.33;2.97;;;10.20;99.90;;;;;;5038408;28;20699;-47
2023/03/18 03:16:36;;;;;;;3.50;2.70;;;10.20;99.90;;;;;;5040582;28;20612;-50
2023/03/18 03:19:04;;;;;;;3.67;2.57;;;10.20;99.90;;;;;;5040934;28;20211;-50
2023/03/18 03:21:32;;;;;;;3.97;2.83;;;10.20;99.90;;;;;;5044800;28;20215;-48
2023/03/18 03:23:59;;;;;;;2.87;2.50;;;10.20;99.90;;;;;;5050887;28;20199;-48
2023/03/18 03:26:27;;;;;;;3.10;2.77;;;10.20;99.90;;;;;;5045383;28;20264;-47
2023/03/18 03:28:54;;;;;;;3.03;2.77;;;10.30;99.90;;;;;;5028170;28;20257;-47
2023/03/18 03:31:21;;;;;;;3.70;2.80;;;10.20;99.90;;;;;;5039327;28;20191;-46
2023/03/18 03:33:49;;;;;;;6.40;2.67;;;10.30;99.90;;;;;;5046564;28;20207;-48
2023/03/18 03:36:17;;;;;;;6.53;3.03;;;10.20;99.90;;;;;;5040946;28;20211;-50
2023/03/18 03:38:45;;;;;;;2.90;2.57;;;10.20;99.90;;;;;;5044439;28;20199;-49
2023/03/18 03:41:14;;;;;;;4.50;2.87;;;10.20;99.90;;;;;;5039905;28;20219;-49
2023/03/18 03:43:42;;;;;;;3.83;2.60;;;10.20;99.90;;;;;;5043423;28;20211;-47
2023/03/18 03:46:09;;;;;;;5.87;3.23;;;10.20;99.90;;;;;;5036178;28;20242;-49
2023/03/18 03:48:37;;;;;;;4.83;3.07;;;10.20;99.90;;;;;;5042960;28;20199;-49
2023/03/18 03:51:08;;;;;;;4.73;3.63;;;10.20;99.90;;;;;;5040758;28;20208;-46
2023/03/18 03:53:35;;;;;;;3.13;2.80;;;10.20;99.90;;;;;;5060502;28;20200;-49
2023/03/18 03:56:03;;;;;;;4.67;3.20;;;10.10;99.90;;;;;;5048226;28;20219;-48
2023/03/18 03:58:31;;;;;;;3.83;3.20;;;10.10;99.90;;;;;;5043027;28;20210;-48
2023/03/18 04:00:58;;;;;;;3.43;3.07;;;10.10;99.90;;;;;;5028869;28;20219;-51
2023/03/18 04:03:25;;;;;;;5.00;3.03;;;10.10;99.90;;;;;;5046029;28;21041;-48
2023/03/18 04:05:52;;;;;;;3.60;3.30;;;10.20;99.90;;;;;;5046247;28;20237;-47
2023/03/18 04:08:24;;;;;;;6.50;3.43;;;10.20;99.90;;;;;;5040397;28;20238;-49
2023/03/18 04:10:52;;;;;;;3.77;3.13;;;10.20;99.90;;;;;;5043790;28;20196;-46
2023/03/18 04:13:18;;;;;;;5.07;3.33;;;10.20;99.90;;;;;;5039597;28;20192;-48
2023/03/18 04:15:46;;;;;;;5.37;3.33;;;10.20;99.90;;;;;;5044206;28;20685;-52
2023/03/18 04:18:18;;;;;;;3.83;2.67;;;10.20;99.90;;;;;;5036149;28;21035;-52
2023/03/18 04:20:46;;;;;;;6.40;3.50;;;10.20;99.90;;;;;;5045241;28;20305;-51
2023/03/18 04:23:21;;;;;;;6.83;2.80;;;10.20;99.90;;;;;;5050314;28;20252;-51
2023/03/18 04:25:50;;;;;;;4.93;3.30;;;10.20;99.90;;;;;;5042786;28;20231;-50
2023/03/18 04:28:18;;;;;;;4.77;3.77;;;10.20;99.90;;;;;;5057349;28;20198;-51
2023/03/18 04:30:44;;;;;;;5.23;3.00;;;10.20;99.90;;;;;;5062163;28;20252;-50
2023/03/18 04:33:15;;;;;;;4.83;3.87;;;10.20;99.90;;;;;;5031140;28;20239;-52
2023/03/18 04:35:42;;;;;;;4.90;3.60;;;10.20;99.90;;;;;;5043844;28;20258;-53
2023/03/18 04:38:11;;;;;;;4.13;3.23;;;10.20;99.90;;;;;;5038024;28;20282;-51
2023/03/18 04:40:38;;;;;;;4.33;3.20;;;10.20;99.90;;;;;;5045739;28;20203;-51
2023/03/18 04:43:06;;;;;;;7.13;3.93;;;10.20;99.90;;;;;;5038499;28;20700;-47
2023/03/18 04:45:33;;;;;;;7.37;4.07;;;10.20;99.90;;;;;;5061622;28;20636;-48
2023/03/18 04:48:01;;;;;;;8.43;4.40;;;10.20;99.90;;;;;;5041441;28;20221;-49
2023/03/18 04:50:31;;;;;;;5.87;3.70;;;10.20;99.90;;;;;;5049977;28;20198;-49
2023/03/18 04:52:59;;;;;;;7.87;3.80;;;10.20;99.90;;;;;;5040143;28;20361;-48
2023/03/18 04:55:29;;;;;;;5.57;4.13;;;10.20;99.90;;;;;;5041221;28;20219;-50
2023/03/18 04:57:58;;;;;;;4.93;3.77;;;10.20;99.90;;;;;;5040604;28;20199;-50
2023/03/18 05:00:28;;;;;;;6.77;4.43;;;10.10;99.90;;;;;;5041030;28;20191;-51
2023/03/18 05:03:09;;;;;;;7.03;4.60;;;10.20;99.90;;;;;;5032960;28;20314;-50
2023/03/18 05:05:36;;;;;;;5.80;4.80;;;10.20;99.90;;;;;;5039597;28;20940;-50
2023/03/18 05:08:03;;;;;;;6.67;4.70;;;10.20;99.90;;;;;;5048776;28;20569;-49
2023/03/18 05:10:30;;;;;;;6.43;4.47;;;10.20;99.90;;;;;;5045588;28;20200;-50
2023/03/18 05:12:58;;;;;;;5.23;4.60;;;10.20;99.90;;;;;;5043252;28;20256;-47
2023/03/18 05:15:32;;;;;;;6.17;4.53;;;10.20;99.90;;;;;;5060331;28;20227;-46
2023/03/18 05:18:00;;;;;;;9.77;5.03;;;10.20;99.90;;;;;;5038899;28;20203;-49
2023/03/18 05:20:28;;;;;;;11.40;5.10;;;10.30;99.90;;;;;;5045532;28;20207;-50
2023/03/18 05:22:56;;;;;;;7.50;5.57;;;10.20;99.90;;;;;;5042105;28;20251;-47
2023/03/18 05:25:32;;;;;;;8.70;5.17;;;10.30;99.90;;;;;;5041086;28;20226;-50
2023/03/18 05:27:59;;;;;;;8.20;5.90;;;10.30;99.90;;;;;;5039770;28;20207;-47
2023/03/18 05:30:38;;;;;;;11.33;5.80;;;10.20;99.90;;;;;;5042050;28;20226;-51
2023/03/18 05:33:04;;;;;;;10.20;6.27;;;10.30;99.90;;;;;;5033876;28;20289;-48
2023/03/18 05:35:43;;;;;;;8.83;5.80;;;10.30;99.90;;;;;;5051968;28;20230;-50
2023/03/18 05:38:09;;;;;;;10.60;6.97;;;10.40;99.90;;;;;;5042529;28;20203;-49
2023/03/18 05:40:36;;;;;;;12.17;6.97;;;10.40;99.90;;;;;;5064256;28;20211;-49
2023/03/18 05:43:10;;;;;;;7.57;6.53;;;10.40;99.90;;;;;;5060339;28;20194;-50
2023/03/18 05:45:44;;;;;;;13.57;6.80;;;10.40;99.90;;;;;;5064234;28;20235;-48
2023/03/18 05:48:15;;;;;;;8.70;6.30;;;10.40;99.90;;;;;;5041892;28;20215;-48
2023/03/18 05:50:50;;;;;;;9.60;7.13;;;10.50;99.90;;;;;;5050866;28;20210;-49
2023/03/18 05:53:37;;;;;;;7.97;6.13;;;10.50;99.90;;;;;;5046955;28;20771;-50
2023/03/18 05:56:17;;;;;;;10.17;6.47;;;10.50;99.90;;;;;;5041606;28;20218;-48
2023/03/18 05:58:48;;;;;;;11.17;6.57;;;10.50;99.90;;;;;;5045242;28;20796;-49
2023/03/18 06:01:24;;;;;;;13.07;7.33;;;10.50;99.90;;;;;;5041800;28;21016;-49
2023/03/18 06:03:52;;;;;;;9.30;6.40;;;10.50;99.90;;;;;;5047838;28;20637;-50
2023/03/18 06:06:19;;;;;;;12.13;6.60;;;10.50;99.90;;;;;;5039294;28;20273;-48
2023/03/18 06:08:47;;;;;;;8.67;7.17;;;10.50;99.90;;;;;;5047997;28;20199;-49
2023/03/18 06:11:14;;;;;;;10.20;7.30;;;10.50;99.90;;;;;;5040925;28;20898;-50
2023/03/18 06:13:42;;;;;;;11.80;7.03;;;10.50;99.90;;;;;;5044662;28;20853;-48
2023/03/18 06:16:09;;;;;;;9.83;7.00;;;10.50;99.90;;;;;;5040937;28;20223;-49
2023/03/18 06:18:37;;;;;;;9.77;6.90;;;10.50;99.90;;;;;;5044124;28;20207;-50
2023/03/18 06:21:07;;;;;;;14.93;7.73;;;10.50;99.90;;;;;;5037892;28;20626;-47
2023/03/18 06:23:34;;;;;;;10.43;7.40;;;10.50;99.90;;;;;;5046944;28;20204;-49
2023/03/18 06:26:02;;;;;;;11.73;7.33;;;10.50;99.90;;;;;;5042064;28;20223;-50
2023/03/18 06:28:34;;;;;;;9.23;6.57;;;10.50;99.90;;;;;;5044474;28;20272;-48
2023/03/18 06:31:07;;;;;;;12.70;7.20;;;10.50;99.90;;;;;;5040988;28;20583;-48
2023/03/18 06:33:34;;;;;;;10.80;7.20;;;10.50;99.90;;;;;;5056088;28;20195;-52
2023/03/18 06:36:03;;;;;;;14.60;8.27;;;10.50;99.90;;;;;;5036259;28;20226;-49
2023/03/18 06:38:31;;;;;;;9.23;6.67;;;10.60;99.90;;;;;;5059760;28;20272;-50
2023/03/18 06:41:00;;;;;;;11.20;7.70;;;10.60;99.90;;;;;;5040105;28;20215;-46
2023/03/18 06:43:27;;;;;;;14.13;7.90;;;10.50;99.90;;;;;;5042841;28;20188;-49
2023/03/18 06:45:55;;;;;;;12.00;7.70;;;10.60;99.90;;;;;;5062180;28;21033;-50
2023/03/18 06:48:23;;;;;;;9.37;7.33;;;10.60;99.90;;;;;;5074360;28;20199;-47
2023/03/18 06:50:51;;;;;;;17.57;8.57;;;10.60;99.90;;;;;;5033740;28;20214;-48
2023/03/18 06:53:26;;;;;;;11.83;7.13;;;10.60;99.90;;;;;;5050671;28;20218;-52
2023/03/18 06:55:55;;;;;;;10.23;7.10;;;10.60;99.90;;;;;;5044375;28;20280;-47
2023/03/18 06:58:25;;;;;;;11.13;7.77;;;10.70;99.90;;;;;;5042408;28;20265;-48
2023/03/18 07:01:01;;;;;;;12.73;7.70;;;10.70;99.90;;;;;;5040688;28;20226;-48
2023/03/18 07:03:35;;;;;;;10.00;7.63;;;10.70;99.90;;;;;;5045802;28;20218;-49
2023/03/18 07:06:03;;;;;;;9.33;7.20;;;10.70;99.90;;;;;;5040211;28;20269;-50
2023/03/18 07:08:33;;;;;;;9.70;6.80;;;10.80;99.90;;;;;;5050571;28;20203;-49
2023/03/18 07:11:02;;;;;;;11.67;7.40;;;10.80;99.90;;;;;;5046585;28;20211;-48
2023/03/18 07:13:28;;;;;;;10.43;7.77;;;10.80;99.90;;;;;;5042260;28;21011;-48
2023/03/18 07:15:57;;;;;;;11.17;7.47;;;10.90;99.90;;;;;;5041594;28;20314;-46
2023/03/18 07:18:24;;;;;;;10.70;7.80;;;10.90;99.90;;;;;;5041372;28;20193;-50
2023/03/18 07:20:52;;;;;;;11.20;7.73;;;10.90;99.90;;;;;;5044771;28;20731;-48
2023/03/18 07:23:21;;;;;;;13.70;8.30;;;11.00;99.90;;;;;;5035225;28;20221;-48
2023/03/18 07:25:51;;;;;;;10.17;7.40;;;11.00;99.90;;;;;;5053816;28;20376;-49
2023/03/18 07:28:19;;;;;;;11.20;7.27;;;11.10;99.90;;;;;;5051471;28;20218;-52
2023/03/18 07:30:46;;;;;;;10.40;7.77;;;11.10;99.90;;;;;;5043357;28;20263;-49
2023/03/18 07:33:14;;;;;;;10.47;7.60;;;11.20;99.90;;;;;;5050751;28;20282;-48
2023/03/18 07:35:41;;;;;;;11.37;7.33;;;11.30;99.90;;;;;;5046551;28;20645;-51
2023/03/18 07:38:10;;;;;;;9.97;8.03;;;11.40;99.90;;;;;;5023956;28;20199;-45
2023/03/18 07:40:36;;;;;;;11.33;7.40;;;11.40;99.90;;;;;;5048201;28;20217;-50
2023/03/18 07:43:05;;;;;;;14.03;7.90;;;11.50;99.90;;;;;;5044636;28;20230;-45
2023/03/18 07:45:33;;;;;;;13.60;8.20;;;11.50;99.90;;;;;;5044084;28;20218;-48
2023/03/18 07:48:00;;;;;;;11.20;7.50;;;11.60;99.90;;;;;;5041453;28;20211;-48
2023/03/18 07:50:27;;;;;;;9.87;7.97;;;11.70;99.90;;;;;;5042942;28;20187;-48
2023/03/18 07:52:55;;;;;;;9.07;7.53;;;11.70;99.90;;;;;;5042774;28;20206;-49
2023/03/18 07:55:23;;;;;;;11.33;7.87;;;11.70;99.90;;;;;;5036018;28;20221;-47
2023/03/18 07:57:50;;;;;;;10.73;7.73;;;11.70;99.90;;;;;;5042446;28;20268;-49
2023/03/18 08:00:19;;;;;;;14.10;8.03;;;11.70;99.90;;;;;;5040349;28;20195;-47
2023/03/18 08:02:46;;;;;;;14.30;7.53;;;11.80;99.90;;;;;;5055037;28;20300;-49
2023/03/18 08:05:14;;;;;;;12.87;7.90;;;11.80;99.90;;;;;;5048031;28;20208;-49
2023/03/18 08:07:41;;;;;;;9.23;7.60;;;11.80;99.90;;;;;;5043987;28;20543;-47
2023/03/18 08:10:10;;;;;;;11.63;7.27;;;11.80;99.90;;;;;;5026719;28;20195;-51
2023/03/18 08:12:37;;;;;;;10.10;8.67;;;11.80;99.90;;;;;;5052830;28;20191;-47
2023/03/18 08:15:06;;;;;;;12.27;7.20;;;11.80;99.90;;;;;;5039304;28;20277;-50
2023/03/18 08:17:34;;;;;;;8.07;7.27;;;11.80;99.90;;;;;;5043048;28;20199;-46
2023/03/18 08:20:01;;;;;;;12.23;8.10;;;11.90;99.90;;;;;;5041861;28;20210;-52
2023/03/18 08:22:28;;;;;;;11.40;8.30;;;11.90;99.90;;;;;;5042299;28;20927;-51
2023/03/18 08:24:56;;;;;;;10.43;8.00;;;11.90;99.90;;;;;;5037013;28;20203;-51
2023/03/18 08:27:23;;;;;;;11.37;7.80;;;11.90;99.90;;;;;;5048020;28;20198;-47
2023/03/18 08:29:51;;;;;;;14.20;8.33;;;11.90;99.90;;;;;;5046501;28;20281;-52
2023/03/18 08:32:18;;;;;;;11.47;7.90;;;11.90;99.90;;;;;;5047943;28;20191;-51
2023/03/18 08:34:46;;;;;;;10.50;8.20;;;11.90;99.90;;;;;;5049079;28;20852;-46
2023/03/18 08:37:13;;;;;;;10.07;7.87;;;11.90;99.90;;;;;;5039695;28;20266;-47
2023/03/18 08:39:43;;;;;;;12.30;7.90;;;11.90;99.90;;;;;;5043650;28;20203;-48
2023/03/18 08:42:10;;;;;;;13.23;7.67;;;11.90;99.90;;;;;;5033434;28;20308;-48
2023/03/18 08:44:39;;;;;;;10.33;8.43;;;12.00;99.90;;;;;;5060167;28;20202;-47
2023/03/18 08:47:07;;;;;;;13.30;7.90;;;12.00;99.90;;;;;;5036597;28;20211;-51
2023/03/18 08:49:34;;;;;;;9.83;8.20;;;12.00;99.90;;;;;;5043279;28;20203;-47
2023/03/18 08:52:03;;;;;;;9.90;8.20;;;12.00;99.90;;;;;;5040987;28;20199;-50
2023/03/18 08:54:29;;;;;;;10.53;8.33;;;11.90;99.90;;;;;;5061565;28;20205;-49
2023/03/18 08:56:58;;;;;;;13.77;8.23;;;11.90;99.90;;;;;;5051266;28;20226;-48
2023/03/18 08:59:25;;;;;;;15.10;9.27;;;11.90;99.90;;;;;;5040387;28;20230;-49
2023/03/18 09:01:52;;;;;;;10.63;8.33;;;11.90;99.90;;;;;;5043063;28;20202;-49
2023/03/18 09:04:19;;;;;;;9.80;7.17;;;11.90;99.90;;;;;;5046840;28;20275;-51
2023/03/18 09:06:47;;;;;;;13.60;8.77;;;11.80;99.90;;;;;;5043124;28;20233;-52
2023/03/18 09:09:15;;;;;;;12.07;8.97;;;11.80;99.90;;;;;;5039642;28;20197;-48
2023/03/18 09:11:44;;;;;;;15.97;9.27;;;11.80;99.90;;;;;;5043085;28;20257;-47
2023/03/18 09:14:12;;;;;;;9.73;8.37;;;11.80;99.90;;;;;;5035180;28;20221;-47
2023/03/18 09:16:39;;;;;;;13.77;8.57;;;11.80;99.90;;;;;;5058096;28;20657;-47
2023/03/18 09:19:05;;;;;;;12.17;8.00;;;11.70;99.90;;;;;;5043229;28;20195;-50
2023/03/18 09:21:33;;;;;;;11.70;8.70;;;11.70;99.90;;;;;;5046649;28;20286;-47
2023/03/18 09:24:00;;;;;;;13.60;9.07;;;11.70;99.90;;;;;;5044578;28;20214;-51
2023/03/18 09:26:28;;;;;;;12.77;9.07;;;11.70;99.90;;;;;;5043664;28;20215;-50
2023/03/18 09:28:54;;;;;;;11.37;9.00;;;11.60;99.90;;;;;;5037651;28;20267;-51
2023/03/18 09:31:22;;;;;;;13.77;9.20;;;11.60;99.90;;;;;;5048458;28;20198;-48
2023/03/18 09:33:48;;;;;;;12.70;8.47;;;11.60;99.90;;;;;;5058260;28;20218;-49
2023/03/18 09:36:15;;;;;;;11.40;9.07;;;11.60;99.90;;;;;;5046067;28;20298;-48
2023/03/18 09:38:42;;;;;;;14.17;9.20;;;11.60;99.90;;;;;;5046700;28;20203;-48
2023/03/18 09:41:23;;;;;;;13.13;9.37;;;11.60;99.90;;;;;;5041602;28;20214;-48
2023/03/18 09:44:00;;;;;;;13.17;8.93;;;11.60;99.90;;;;;;5037891;28;20214;-51
2023/03/18 09:46:35;;;;;;;10.47;9.03;;;11.60;99.90;;;;;;5047967;28;20254;-47
2023/03/18 09:49:23;;;;;;;15.00;9.17;;;11.60;99.90;;;;;;5043567;28;20206;-51
2023/03/18 09:51:59;;;;;;;12.33;8.83;;;11.70;99.90;;;;;;5059966;28;20202;-47
2023/03/18 09:54:35;;;;;;;17.07;9.23;;;11.70;99.90;;;;;;5063805;28;20198;-48
2023/03/18 09:57:03;;;;;;;11.77;9.33;;;11.70;99.90;;;;;;5063146;28;20218;-50
2023/03/18 09:59:38;;;;;;;11.57;9.60;;;11.80;99.90;;;;;;5036560;28;20238;-47
2023/03/18 10:02:19;;;;;;;10.57;9.23;;;11.90;99.90;;;;;;5051738;28;20202;-50
2023/03/18 10:04:52;;;;;;;15.03;8.73;;;11.90;99.90;;;;;;5047373;28;20214;-49
2023/03/18 10:07:22;;;;;;;17.07;9.57;;;11.90;99.90;;;;;;5040975;28;20187;-49
2023/03/18 10:09:54;;;;;;;13.00;9.00;;;12.00;99.90;;;;;;5059129;28;20668;-46
2023/03/18 10:12:30;;;;;;;12.97;8.87;;;12.10;99.90;;;;;;5062449;28;20259;-48
2023/03/18 10:15:07;;;;;;;11.00;8.57;;;12.10;99.90;;;;;;5044391;28;20214;-50
2023/03/18 10:17:38;;;;;;;10.47;8.33;;;12.10;99.90;;;;;;5046145;28;20210;-47
2023/03/18 10:20:15;;;;;;;9.43;8.43;;;12.10;99.90;;;;;;5043300;28;20716;-52
2023/03/18 10:22:55;;;;;;;11.17;9.53;;;12.20;99.90;;;;;;5045854;28;20301;-48
2023/03/18 10:25:28;;;;;;;12.60;8.80;;;12.40;99.90;;;;;;5042511;28;20247;-47
2023/03/18 10:28:08;;;;;;;13.17;8.43;;;12.50;99.90;;;;;;5044469;28;20192;-52
2023/03/18 10:30:53;;;;;;;9.97;8.63;;;12.60;99.90;;;;;;5034229;28;20787;-49
2023/03/18 10:33:32;;;;;;;13.23;9.33;;;12.60;99.90;;;;;;5050834;28;20939;-49
2023/03/18 10:36:05;;;;;;;12.47;8.13;;;12.80;99.90;;;;;;5040588;28;20227;-52
2023/03/18 10:38:36;;;;;;;10.30;7.80;;;12.80;99.90;;;;;;5043659;28;20650;-46
2023/03/18 10:41:14;;;;;;;13.40;8.30;;;12.80;99.90;;;;;;5043002;28;20768;-51
2023/03/18 10:43:42;;;;;;;10.57;8.20;;;12.90;99.90;;;;;;5055945;28;20865;-46
2023/03/18 10:46:15;;;;;;;10.77;8.03;;;12.90;99.90;;;;;;5033731;28;20634;-51
2023/03/18 10:48:46;;;;;;;9.60;7.53;;;13.00;99.90;;;;;;5050487;28;20565;-46
2023/03/18 10:51:19;;;;;;;11.17;7.97;;;13.20;99.90;;;;;;5042963;28;20198;-49
2023/03/18 10:53:54;;;;;;;8.97;6.70;;;13.30;99.90;;;;;;5045163;28;20673;-49
2023/03/18 10:56:21;;;;;;;8.00;7.10;;;13.40;99.90;;;;;;5042644;28;20298;-48
2023/03/18 10:58:49;;;;;;;10.73;7.13;;;13.30;99.90;;;;;;5044735;28;20280;-49
2023/03/18 11:01:21;;;;;;;9.83;7.10;;;13.40;99.90;;;;;;5026737;28;20775;-50
2023/03/18 11:03:53;;;;;;;7.47;6.70;;;13.60;99.90;;;;;;5049849;28;20237;-48
2023/03/18 11:06:24;;;;;;;6.70;5.90;;;13.70;99.90;;;;;;5051286;28;20225;-51
2023/03/18 11:09:02;;;;;;;8.23;5.60;;;13.80;99.90;;;;;;5063879;28;20814;-50
2023/03/18 11:11:33;;;;;;;8.57;5.47;;;13.80;99.90;;;;;;5063182;28;20209;-49
2023/03/18 11:14:02;;;;;;;9.00;5.67;;;13.90;99.90;;;;;;5061264;28;20194;-50
2023/03/18 11:16:37;;;;;;;7.07;5.50;;;14.00;99.90;;;;;;5044103;28;22726;-50
2023/03/18 11:19:21;;;;;;;7.07;5.77;;;14.10;99.90;;;;;;5052775;28;20202;-47
2023/03/18 11:21:47;;;;;;;6.57;5.73;;;14.10;99.90;;;;;;5044164;28;20280;-52
2023/03/18 11:24:34;;;;;;;8.47;5.93;;;14.10;99.90;;;;;;5040634;28;20218;-48
2023/03/18 11:27:03;;;;;;;7.37;5.97;;;14.10;99.90;;;;;;5057397;28;20222;-45
2023/03/18 11:29:32;;;;;;;7.63;6.03;;;14.10;99.90;;;;;;5062000;28;20199;-50
2023/03/18 11:32:01;;;;;;;8.60;6.53;;;14.20;99.90;;;;;;5049200;28;20210;-52
2023/03/18 11:34:30;;;;;;;8.63;6.70;;;14.20;99.90;;;;;;5050557;28;20268;-47
2023/03/18 11:37:03;;;;;;;6.70;6.00;;;14.30;99.90;;;;;;5050835;28;20277;-53
2023/03/18 11:39:31;;;;;;;10.17;6.60;;;14.50;99.90;;;;;;5043545;28;20274;-47
2023/03/18 11:42:00;;;;;;;7.70;6.27;;;14.60;99.90;;;;;;5042217;28;20316;-51
2023/03/18 11:44:31;;;;;;;8.80;6.77;;;14.70;99.90;;;;;;5042237;28;20324;-47
2023/03/18 11:47:09;;;;;;;6.57;5.83;;;14.80;99.90;;;;;;5041949;28;20693;-51
2023/03/18 11:49:37;;;;;;;6.70;5.97;;;14.90;99.90;;;;;;5032849;28;20218;-49
2023/03/18 11:52:22;;;;;;;7.47;6.70;;;15.10;99.90;;;;;;5042135;28;20215;-53
2023/03/18 11:55:09;;;;;;;9.37;6.77;;;15.20;99.90;;;;;;5043639;28;20187;-50
2023/03/18 11:57:51;;;;;;;7.40;6.63;;;15.30;99.90;;;;;;5044164;28;20214;-47
2023/03/18 12:00:28;;;;;;;9.47;7.07;;;15.40;99.90;;;;;;5040366;28;20202;-48
2023/03/18 12:03:35;;;;;;;9.53;6.13;;;15.40;99.90;;;;;;5045167;28;20198;-51
2023/03/18 12:06:16;;;;;;;6.97;6.27;;;15.30;99.90;;;;;;5044011;28;20246;-49
2023/03/18 12:08:57;;;;;;;8.63;6.57;;;15.40;99.90;;;;;;5041997;28;20214;-51
2023/03/18 12:11:48;;;;;;;7.97;7.00;;;15.50;99.90;;;;;;5042012;28;20289;-51
2023/03/18 12:14:27;;;;;;;9.70;6.73;;;15.60;99.90;;;;;;5052596;28;20197;-47
2023/03/18 12:17:06;;;;;;;7.37;6.53;;;15.70;99.90;;;;;;5061998;28;20226;-50
2023/03/18 12:19:51;;;;;;;8.40;7.00;;;15.90;99.90;;;;;;5035190;28;20273;-47
2023/03/18 12:22:40;;;;;;;8.87;7.00;;;15.90;99.90;;;;;;5049721;28;20201;-48
2023/03/18 12:25:39;;;;;;;11.23;7.30;;;15.70;99.90;;;;;;5048603;28;20288;-47
2023/03/18 12:28:13;;;;;;;9.63;7.40;;;15.60;99.90;;;;;;5040037;28;20199;-52
2023/03/18 12:30:52;;;;;;;7.63;6.50;;;15.40;99.90;;;;;;5056727;28;20331;-47
2023/03/18 12:33:43;;;;;;;9.87;7.10;;;15.30;99.90;;;;;;5046975;28;20719;-48
2023/03/18 12:36:20;;;;;;;8.33;6.80;;;15.20;99.90;;;;;;5028289;28;20305;-47
2023/03/18 12:39:23;;;;;;;8.93;6.80;;;15.10;99.90;;;;;;5043753;28;20195;-47
2023/03/18 12:42:01;;;;;;;10.87;6.87;;;15.10;99.90;;;;;;5042150;28;20264;-49
2023/03/18 12:44:42;;;;;;;10.83;7.37;;;15.10;99.90;;;;;;5039462;28;20213;-51
2023/03/18 12:47:17;;;;;;;8.47;6.00;;;15.00;99.90;;;;;;5039575;28;20209;-48
2023/03/18 12:49:48;;;;;;;10.63;7.03;;;15.00;99.90;;;;;;5045816;28;20201;-51
2023/03/18 12:52:26;;;;;;;7.60;6.43;;;15.00;99.90;;;;;;5046349;28;20202;-48
2023/03/18 12:55:00;;;;;;;8.20;6.37;;;15.00;99.90;;;;;;5050792;28;20257;-53
2023/03/18 12:57:35;;;;;;;7.07;6.33;;;15.10;99.90;;;;;;5062248;28;20939;-49
2023/03/18 13:00:09;;;;;;;9.10;6.23;;;15.20;99.90;;;;;;5064011;28;20216;-52
2023/03/18 13:02:43;;;;;;;8.90;6.10;;;15.40;99.90;;;;;;5062374;28;20676;-47